Terminal Aerodrome Forecast
Issued by NWS Cleveland, OH

Home | Current Version | Previous Version | Graphics & Text | Print | Product List | Glossary Off
Versions: 1 2 3 4 5 6 7 8 9 10 11 12 13 14 15 16 17 18 19 20 21

000
FTUS41 KCLE 222110 AAA
TAFCLE
TAF AMD
KCLE 222110Z 2221/2324 18012G20KT P6SM SCT250
     FM222200 16008KT P6SM BKN200
     FM231300 15008KT P6SM BKN045
     FM231600 15012G22KT P6SM VCSH BKN028
     FM231800 17015KT 4SM -RA OVC007=

USA.gov is the U.S. government's official web portal to all federal, state and local government web resources and services.